Time;durP1;ratioP1;P1;durP2;ratioP2;P2;SDS_P1;SDS_P2;PMS_P1;PMS_P2;Temp;Humidity;BMP_temperature;BMP_pressure;BME280_temperature;BME280_humidity;BME280_pressure;Samples;Min_cycle;Max_cycle;Signal;HPM_P1;HPM_P2
2022/05/11 00:01:33;;;;;;;10.75;6.00;;;18.60;56.60;;;;;;5066657;28;20031;-67
2022/05/11 00:04:00;;;;;;;11.10;5.00;;;18.60;56.70;;;;;;5084138;28;20384;-67
2022/05/11 00:06:27;;;;;;;8.95;5.55;;;18.50;56.80;;;;;;5078089;28;20044;-67
2022/05/11 00:08:54;;;;;;;9.25;5.25;;;18.50;56.80;;;;;;5086061;28;20040;-67
2022/05/11 00:11:20;;;;;;;11.07;5.43;;;18.50;56.90;;;;;;5065292;28;20028;-67
2022/05/11 00:13:46;;;;;;;8.52;5.43;;;18.50;57.10;;;;;;5089186;28;20024;-69
2022/05/11 00:16:12;;;;;;;9.20;5.68;;;18.40;57.30;;;;;;5066524;28;20103;-67
2022/05/11 00:18:39;;;;;;;12.80;6.32;;;18.40;57.50;;;;;;5070304;28;20024;-67
2022/05/11 00:21:05;;;;;;;10.40;5.80;;;18.40;57.60;;;;;;5090605;28;20091;-67
2022/05/11 00:23:31;;;;;;;8.35;5.28;;;18.30;57.70;;;;;;5091881;28;20361;-66
2022/05/11 00:25:57;;;;;;;7.25;5.40;;;18.30;57.90;;;;;;5060551;28;20027;-67
2022/05/11 00:28:23;;;;;;;9.82;5.72;;;18.20;58.10;;;;;;5091166;28;20039;-66
2022/05/11 00:30:48;;;;;;;9.35;6.03;;;18.20;58.40;;;;;;5089481;28;20016;-68
2022/05/11 00:33:15;;;;;;;9.63;5.93;;;18.10;58.70;;;;;;5085879;28;20103;-67
2022/05/11 00:35:43;;;;;;;8.93;5.55;;;18.00;58.90;;;;;;5093779;28;20016;-67
2022/05/11 00:38:10;;;;;;;11.85;5.95;;;18.00;59.00;;;;;;5082247;28;20419;-66
2022/05/11 00:40:51;;;;;;;11.80;6.03;;;17.90;59.30;;;;;;5087119;28;20017;-64
2022/05/11 00:43:35;;;;;;;9.77;6.25;;;17.90;59.40;;;;;;5089147;28;20067;-67
2022/05/11 00:46:39;;;;;;;8.93;5.20;;;17.90;59.30;;;;;;5087299;28;20044;-66
2022/05/11 00:52:02;;;;;;;8.70;5.43;;;17.90;59.40;;;;;;5081918;28;20119;-67
2022/05/11 00:54:32;;;;;;;8.55;5.57;;;17.90;59.40;;;;;;5064982;28;20618;-67
2022/05/11 00:57:01;;;;;;;6.45;5.57;;;17.90;60.10;;;;;;5092799;28;20024;-67
2022/05/11 00:59:33;;;;;;;9.60;5.38;;;17.80;59.60;;;;;;5071241;28;20020;-67
2022/05/11 01:02:04;;;;;;;7.35;5.45;;;17.80;59.60;;;;;;5090623;28;20024;-67
2022/05/11 01:04:37;;;;;;;9.63;5.90;;;17.90;59.60;;;;;;5090531;28;20111;-67
2022/05/11 01:07:04;;;;;;;10.20;5.65;;;17.80;59.50;;;;;;5073578;28;20028;-67
2022/05/11 01:09:30;;;;;;;6.25;5.00;;;17.90;59.70;;;;;;5086838;28;20048;-67
2022/05/11 01:11:59;;;;;;;11.02;5.75;;;17.90;59.50;;;;;;5075221;28;20055;-67
2022/05/11 01:14:30;;;;;;;11.38;5.47;;;17.90;59.50;;;;;;5091820;28;20035;-67
2022/05/11 01:16:58;;;;;;;7.97;5.80;;;17.90;59.40;;;;;;5073116;28;20012;-67
2022/05/11 01:19:31;;;;;;;9.57;5.50;;;17.90;59.30;;;;;;5070532;28;20117;-66
2022/05/11 01:22:23;;;;;;;7.45;5.07;;;17.90;59.30;;;;;;5090175;28;20469;-67
2022/05/11 01:24:50;;;;;;;13.70;5.80;;;18.00;59.50;;;;;;5076819;28;20043;-68
2022/05/11 01:27:33;;;;;;;8.52;5.75;;;17.90;59.30;;;;;;5075211;28;20027;-66
2022/05/11 01:30:23;;;;;;;10.93;5.95;;;18.00;59.40;;;;;;5089997;28;20020;-67
2022/05/11 01:32:54;;;;;;;7.28;5.22;;;18.00;59.40;;;;;;5062592;28;20043;-67
2022/05/11 01:35:24;;;;;;;6.65;5.20;;;18.00;59.30;;;;;;5090159;28;20415;-66
2022/05/11 01:38:09;;;;;;;6.57;4.93;;;17.90;59.40;;;;;;5064710;28;20115;-68
2022/05/11 01:40:35;;;;;;;7.85;5.78;;;17.90;59.50;;;;;;5067711;28;20024;-67
2022/05/11 01:43:00;;;;;;;11.70;6.15;;;17.90;59.40;;;;;;5080729;28;20036;-67
2022/05/11 01:45:26;;;;;;;13.40;6.03;;;17.90;59.60;;;;;;5085773;28;20027;-66
2022/05/11 01:47:56;;;;;;;11.90;6.43;;;17.80;59.80;;;;;;5093320;28;20380;-69
2022/05/11 01:50:23;;;;;;;8.00;5.97;;;17.80;60.00;;;;;;5061328;28;20355;-67
2022/05/11 01:52:49;;;;;;;11.52;6.32;;;17.70;59.90;;;;;;5080683;28;20081;-67
2022/05/11 01:55:15;;;;;;;13.75;6.30;;;17.80;60.00;;;;;;5074527;28;20016;-67
2022/05/11 01:57:40;;;;;;;7.78;5.85;;;17.70;60.10;;;;;;5091626;28;20040;-69
2022/05/11 02:00:09;;;;;;;10.60;6.00;;;17.70;60.10;;;;;;5091166;28;20094;-67
2022/05/11 02:02:34;;;;;;;9.07;5.90;;;17.70;60.10;;;;;;5089592;28;20024;-67
2022/05/11 02:07:50;;;;;;;8.13;5.85;;;17.70;60.30;;;;;;5090494;28;20124;-67
2022/05/11 02:10:22;;;;;;;8.90;6.22;;;17.70;60.50;;;;;;5085168;28;20028;-67
2022/05/11 02:12:48;;;;;;;7.53;6.05;;;17.60;60.60;;;;;;5078936;28;20120;-67
2022/05/11 02:15:14;;;;;;;8.82;6.70;;;17.60;60.70;;;;;;5090507;28;20087;-67
2022/05/11 02:17:42;;;;;;;8.52;5.95;;;17.50;60.70;;;;;;5089230;28;20032;-67
2022/05/11 02:20:08;;;;;;;8.70;5.93;;;17.50;60.90;;;;;;5072038;28;20477;-67
2022/05/11 02:22:34;;;;;;;10.88;6.20;;;17.50;60.90;;;;;;5087367;28;20044;-67
2022/05/11 02:24:59;;;;;;;9.40;6.18;;;17.50;61.20;;;;;;5073750;28;20028;-67
2022/05/11 02:27:25;;;;;;;13.43;6.40;;;17.40;61.10;;;;;;5071388;28;20118;-67
2022/05/11 02:29:51;;;;;;;11.23;5.88;;;17.50;61.20;;;;;;5063943;28;20042;-67
2022/05/11 02:32:17;;;;;;;11.90;5.88;;;17.40;61.30;;;;;;5084898;28;20031;-67
2022/05/11 02:37:27;;;;;;;7.90;5.88;;;17.40;61.40;;;;;;5079053;28;20106;-67
2022/05/11 02:39:52;;;;;;;12.35;6.25;;;17.40;61.60;;;;;;5086167;28;20533;-67
2022/05/11 02:42:18;;;;;;;7.97;5.80;;;17.40;61.70;;;;;;5081713;28;20543;-67
2022/05/11 02:44:45;;;;;;;8.65;6.00;;;17.30;61.80;;;;;;5090489;28;20034;-67
2022/05/11 02:47:12;;;;;;;9.02;6.05;;;17.30;62.00;;;;;;5063919;28;20428;-67
2022/05/11 02:49:37;;;;;;;11.38;6.25;;;17.30;62.00;;;;;;5071764;28;20020;-67
2022/05/11 02:52:22;;;;;;;7.72;6.13;;;17.30;62.00;;;;;;5084206;28;20054;-67
2022/05/11 02:54:48;;;;;;;9.38;5.40;;;17.30;62.00;;;;;;5060387;28;20036;-67
2022/05/11 02:57:16;;;;;;;9.05;6.68;;;17.30;62.10;;;;;;5071472;28;20077;-67
2022/05/11 02:59:44;;;;;;;11.90;6.63;;;17.30;62.20;;;;;;5091067;28;20034;-67
2022/05/11 03:02:10;;;;;;;10.23;5.90;;;17.20;62.10;;;;;;5061566;28;20056;-68
2022/05/11 03:04:36;;;;;;;10.70;6.10;;;17.30;62.10;;;;;;5064498;28;20016;-67
2022/05/11 03:07:01;;;;;;;8.18;5.70;;;17.30;62.10;;;;;;5062125;28;20474;-67
2022/05/11 03:09:27;;;;;;;9.57;6.22;;;17.30;62.10;;;;;;5082307;28;20021;-67
2022/05/11 03:11:53;;;;;;;9.93;6.15;;;17.20;62.30;;;;;;5079517;28;20103;-67
2022/05/11 03:14:19;;;;;;;12.85;6.55;;;17.20;62.50;;;;;;5060312;28;20108;-67
2022/05/11 03:16:44;;;;;;;11.18;5.95;;;17.10;62.60;;;;;;5077955;28;20016;-67
2022/05/11 03:19:10;;;;;;;10.10;6.03;;;17.10;62.60;;;;;;5066381;28;20035;-67
2022/05/11 03:21:36;;;;;;;9.63;6.20;;;17.20;62.60;;;;;;5071532;28;20080;-67
2022/05/11 03:24:02;;;;;;;9.38;6.22;;;17.10;62.70;;;;;;5068463;28;20040;-67
2022/05/11 03:26:28;;;;;;;8.82;6.10;;;17.10;62.70;;;;;;5068826;28;20032;-67
2022/05/11 03:28:54;;;;;;;11.02;6.38;;;17.10;62.80;;;;;;5090419;28;20038;-67
2022/05/11 03:31:19;;;;;;;10.23;6.70;;;17.00;62.90;;;;;;5087550;28;20119;-67
2022/05/11 03:36:30;;;;;;;8.95;6.28;;;17.00;63.20;;;;;;5082771;28;20066;-66
2022/05/11 03:38:55;;;;;;;11.40;6.43;;;17.00;63.20;;;;;;5078350;28;20059;-67
2022/05/11 03:41:22;;;;;;;7.20;6.20;;;17.00;63.30;;;;;;5066589;28;20051;-67
2022/05/11 03:43:48;;;;;;;12.48;5.95;;;17.00;63.30;;;;;;5063033;28;20074;-67
2022/05/11 03:46:14;;;;;;;9.80;6.40;;;17.00;63.30;;;;;;5060015;28;20079;-67
2022/05/11 03:48:40;;;;;;;13.75;7.20;;;16.90;63.30;;;;;;5085016;28;20027;-68
2022/05/11 03:51:06;;;;;;;10.35;6.85;;;16.90;63.30;;;;;;5086941;28;20054;-67
2022/05/11 03:53:34;;;;;;;11.02;6.70;;;17.00;63.20;;;;;;5076270;28;20028;-67
2022/05/11 03:56:00;;;;;;;10.05;7.30;;;17.00;63.20;;;;;;5082172;28;20029;-70
2022/05/11 03:58:26;;;;;;;9.48;6.25;;;17.00;63.10;;;;;;5072362;28;20077;-69
2022/05/11 04:00:52;;;;;;;8.48;6.40;;;17.10;63.00;;;;;;5084804;28;20465;-67
2022/05/11 04:03:18;;;;;;;10.13;6.35;;;17.10;62.90;;;;;;5080847;28;20028;-68
2022/05/11 04:05:43;;;;;;;8.10;6.20;;;17.10;63.40;;;;;;5066345;28;20431;-67
2022/05/11 04:08:09;;;;;;;9.15;6.30;;;17.20;62.70;;;;;;5084068;28;20114;-68
2022/05/11 04:10:36;;;;;;;8.73;6.30;;;17.20;62.60;;;;;;5085256;28;20110;-68
2022/05/11 04:13:02;;;;;;;8.88;5.88;;;17.20;62.50;;;;;;5081797;28;20060;-69
2022/05/11 04:15:28;;;;;;;13.20;7.05;;;17.20;62.30;;;;;;5082192;28;20028;-69
2022/05/11 04:17:54;;;;;;;11.45;6.25;;;17.30;62.20;;;;;;5087157;28;20373;-68
2022/05/11 04:20:20;;;;;;;11.13;6.57;;;17.40;62.10;;;;;;5069933;28;20028;-68
2022/05/11 04:22:47;;;;;;;11.10;6.85;;;17.40;62.00;;;;;;5086265;28;20029;-68
2022/05/11 04:25:15;;;;;;;11.07;6.45;;;17.40;62.60;;;;;;5060545;28;20024;-67
2022/05/11 04:27:42;;;;;;;9.23;6.60;;;17.50;61.90;;;;;;5081471;28;20025;-69
2022/05/11 04:30:09;;;;;;;10.68;6.28;;;17.50;61.70;;;;;;5084395;28;20074;-69
2022/05/11 04:32:34;;;;;;;11.80;6.72;;;17.60;61.60;;;;;;5084891;28;20066;-67
2022/05/11 04:35:01;;;;;;;12.02;7.53;;;17.60;61.40;;;;;;5087152;28;20048;-68
2022/05/11 04:37:26;;;;;;;11.10;6.65;;;17.60;61.30;;;;;;5079523;28;20059;-67
2022/05/11 04:39:52;;;;;;;8.95;6.57;;;17.60;61.20;;;;;;5077389;28;20052;-67
2022/05/11 04:42:18;;;;;;;14.70;7.00;;;17.70;61.10;;;;;;5082371;28;20036;-67
2022/05/11 04:44:44;;;;;;;11.30;7.13;;;17.70;60.90;;;;;;5085555;28;20052;-67
2022/05/11 04:47:12;;;;;;;10.30;6.50;;;17.80;60.90;;;;;;5082280;28;20035;-68
2022/05/11 04:49:39;;;;;;;15.98;7.35;;;17.80;60.70;;;;;;5065570;28;20495;-69
2022/05/11 04:52:11;;;;;;;12.18;7.35;;;17.80;60.70;;;;;;5086321;28;20077;-70
2022/05/11 04:54:38;;;;;;;13.90;7.20;;;17.80;60.50;;;;;;5088601;28;20024;-68
2022/05/11 04:57:05;;;;;;;16.95;7.30;;;17.90;60.50;;;;;;5081569;28;20021;-69
2022/05/11 04:59:32;;;;;;;11.60;7.05;;;17.90;60.30;;;;;;5090635;28;20027;-69
2022/05/11 05:01:59;;;;;;;12.30;7.53;;;18.00;60.10;;;;;;5085034;28;20035;-68
2022/05/11 05:04:27;;;;;;;12.65;6.53;;;18.00;60.00;;;;;;5085635;28;20031;-68
2022/05/11 05:06:52;;;;;;;8.35;6.35;;;18.10;60.00;;;;;;5093168;28;20035;-68
2022/05/11 05:09:18;;;;;;;13.43;7.20;;;18.10;59.80;;;;;;5083186;28;20032;-66
2022/05/11 05:11:44;;;;;;;14.40;7.90;;;18.20;59.80;;;;;;5078457;28;20024;-68
2022/05/11 05:14:11;;;;;;;12.13;7.07;;;18.30;59.60;;;;;;5070839;28;20119;-68
2022/05/11 05:16:37;;;;;;;15.88;8.00;;;18.30;59.30;;;;;;5065411;28;20416;-69
2022/05/11 05:19:03;;;;;;;14.50;8.13;;;18.40;59.60;;;;;;5089792;28;20146;-68
2022/05/11 05:21:29;;;;;;;13.60;7.55;;;18.50;58.80;;;;;;5066581;28;20111;-68
2022/05/11 05:23:54;;;;;;;12.13;7.57;;;18.60;58.60;;;;;;5068136;28;20027;-69
2022/05/11 05:26:20;;;;;;;13.70;7.85;;;18.70;58.40;;;;;;5085014;28;20032;-67
2022/05/11 05:31:31;;;;;;;19.23;8.75;;;18.80;58.00;;;;;;5083284;28;20151;-68
2022/05/11 05:34:00;;;;;;;16.08;8.32;;;18.80;58.40;;;;;;5066448;28;20075;-69
2022/05/11 05:36:28;;;;;;;15.15;7.95;;;18.90;57.60;;;;;;5060228;28;20107;-67
2022/05/11 05:38:55;;;;;;;11.82;7.57;;;19.00;57.50;;;;;;5082431;28;20039;-69
2022/05/11 05:41:21;;;;;;;19.35;7.97;;;19.00;57.20;;;;;;5079620;28;20333;-67
2022/05/11 05:43:47;;;;;;;15.25;7.60;;;19.10;57.10;;;;;;5067908;28;20035;-68
2022/05/11 05:46:16;;;;;;;13.20;7.07;;;19.10;57.00;;;;;;5058774;28;20024;-67
2022/05/11 05:48:43;;;;;;;18.33;8.95;;;19.10;56.80;;;;;;5063768;28;20024;-67
2022/05/11 05:51:12;;;;;;;13.90;6.78;;;19.20;56.70;;;;;;5082765;28;20121;-67
2022/05/11 05:53:41;;;;;;;20.23;7.50;;;19.30;56.60;;;;;;5083521;28;20032;-68
2022/05/11 05:56:08;;;;;;;19.58;7.57;;;19.30;56.30;;;;;;5066223;28;20404;-70
2022/05/11 05:58:34;;;;;;;16.83;7.10;;;19.40;56.20;;;;;;5060904;28;20051;-68
2022/05/11 06:01:00;;;;;;;14.68;6.97;;;19.50;55.90;;;;;;5061255;28;20048;-68
2022/05/11 06:03:29;;;;;;;16.83;7.55;;;19.60;55.70;;;;;;5056327;28;20053;-69
2022/05/11 06:05:55;;;;;;;13.38;6.43;;;19.70;55.40;;;;;;5079789;28;20024;-69
2022/05/11 06:08:23;;;;;;;12.27;6.57;;;19.80;55.00;;;;;;5075049;28;20460;-69
2022/05/11 06:10:49;;;;;;;15.65;6.63;;;19.90;54.70;;;;;;5061167;28;20035;-69
2022/05/11 06:13:17;;;;;;;16.05;6.18;;;20.00;54.50;;;;;;5071949;28;20035;-69
2022/05/11 06:15:43;;;;;;;11.48;6.07;;;20.20;54.10;;;;;;5082907;28;20024;-68
2022/05/11 06:18:10;;;;;;;9.50;5.60;;;20.40;53.40;;;;;;5078732;28;20153;-69
2022/05/11 06:20:37;;;;;;;11.95;5.13;;;20.60;52.70;;;;;;5075385;28;20032;-68
2022/05/11 06:23:04;;;;;;;13.52;5.45;;;20.70;51.90;;;;;;5075789;28;20047;-69
2022/05/11 06:25:31;;;;;;;12.05;5.35;;;20.80;51.40;;;;;;5057305;28;20043;-67
2022/05/11 06:28:00;;;;;;;17.92;5.68;;;20.90;50.80;;;;;;5078506;28;20354;-67
2022/05/11 06:30:28;;;;;;;9.40;5.47;;;21.00;50.30;;;;;;5074413;28;20543;-67
2022/05/11 06:32:55;;;;;;;11.05;4.95;;;21.00;50.10;;;;;;5081146;28;20073;-68
2022/05/11 06:35:21;;;;;;;14.02;5.28;;;21.10;49.40;;;;;;5054142;28;20024;-68
2022/05/11 06:37:48;;;;;;;13.15;6.07;;;21.20;49.00;;;;;;5059630;28;20020;-68
2022/05/11 06:40:15;;;;;;;12.65;6.10;;;21.30;48.90;;;;;;5087600;28;20443;-67
2022/05/11 06:42:41;;;;;;;18.45;5.32;;;21.40;48.50;;;;;;5049514;28;20428;-67
2022/05/11 06:45:09;;;;;;;11.38;5.32;;;21.60;48.00;;;;;;5043065;28;20024;-70
2022/05/11 06:47:34;;;;;;;16.45;5.75;;;21.90;47.70;;;;;;5040117;28;20037;-68
2022/05/11 06:50:01;;;;;;;12.65;6.13;;;22.20;47.30;;;;;;5065071;28;20031;-67
2022/05/11 06:52:27;;;;;;;12.52;5.53;;;22.50;46.70;;;;;;5056283;28;20649;-68
2022/05/11 07:00:31;;;;;;;16.92;5.07;;;29.40;37.60;;;;;;5057545;28;20118;-67
2022/05/11 07:02:56;;;;;;;12.73;5.25;;;31.80;34.20;;;;;;5038292;28;20029;-71
2022/05/11 07:05:22;;;;;;;13.73;5.22;;;33.50;32.10;;;;;;5048817;28;20135;-68
2022/05/11 07:07:50;;;;;;;15.75;5.25;;;35.10;30.40;;;;;;5045558;28;20031;-69
2022/05/11 07:10:16;;;;;;;14.43;5.25;;;36.50;28.80;;;;;;5055932;28;20035;-65
2022/05/11 07:12:48;;;;;;;19.45;5.38;;;37.40;27.70;;;;;;5034998;28;20473;-67
2022/05/11 07:15:16;;;;;;;11.70;4.00;;;38.60;27.10;;;;;;5056677;28;20508;-67
2022/05/11 07:17:47;;;;;;;9.25;3.63;;;39.90;25.80;;;;;;5043725;28;20291;-66
2022/05/11 07:20:30;;;;;;;10.32;3.95;;;40.20;24.80;;;;;;5067232;28;20028;-66
2022/05/11 07:22:57;;;;;;;7.05;4.13;;;41.00;24.50;;;;;;5054027;28;20029;-68
2022/05/11 07:25:24;;;;;;;10.93;4.10;;;42.10;24.10;;;;;;5059272;28;20051;-65
2022/05/11 07:27:52;;;;;;;8.82;4.15;;;42.80;23.50;;;;;;5054466;28;20028;-64
2022/05/11 07:30:26;;;;;;;12.80;4.45;;;43.70;23.30;;;;;;5042164;28;20025;-68
2022/05/11 07:32:52;;;;;;;8.57;4.60;;;44.50;23.00;;;;;;5060570;28;20114;-65
2022/05/11 07:35:18;;;;;;;10.90;4.82;;;45.10;22.80;;;;;;5041300;28;20040;-65
2022/05/11 07:37:47;;;;;;;12.77;5.05;;;45.30;22.60;;;;;;5040715;28;20025;-67
2022/05/11 07:40:15;;;;;;;9.80;4.47;;;45.80;22.60;;;;;;5061678;28;20025;-66
2022/05/11 07:42:41;;;;;;;7.13;4.55;;;46.30;22.30;;;;;;5073180;28;20044;-65
2022/05/11 07:45:07;;;;;;;7.28;3.75;;;46.60;21.70;;;;;;5080369;28;20024;-71
2022/05/11 07:47:33;;;;;;;8.48;4.10;;;46.40;21.80;;;;;;5070761;28;20023;-66
2022/05/11 07:49:59;;;;;;;5.90;3.63;;;46.50;21.60;;;;;;5074813;28;19950;-66
2022/05/11 07:52:25;;;;;;;14.55;4.55;;;46.50;21.40;;;;;;5082176;28;20630;-67
2022/05/11 07:54:51;;;;;;;8.25;4.25;;;46.60;21.60;;;;;;5079673;28;20099;-68
2022/05/11 08:00:03;;;;;;;18.10;5.00;;;47.20;21.70;;;;;;5072815;28;20031;-65
2022/05/11 08:02:33;;;;;;;7.53;4.10;;;47.80;21.50;;;;;;5062977;28;20042;-71
2022/05/11 08:05:12;;;;;;;10.40;4.32;;;48.40;21.20;;;;;;5051855;28;20070;-74
2022/05/11 08:07:47;;;;;;;8.65;4.53;;;49.10;21.00;;;;;;5075337;28;20376;-69
2022/05/11 08:10:16;;;;;;;9.00;4.70;;;50.00;20.80;;;;;;5060140;28;20024;-70
2022/05/11 08:12:42;;;;;;;7.00;4.82;;;50.10;21.00;;;;;;5058777;28;20166;-65
2022/05/11 08:15:09;;;;;;;9.98;4.43;;;49.60;20.30;;;;;;5051273;28;20029;-69
2022/05/11 08:17:36;;;;;;;7.63;3.67;;;49.00;20.50;;;;;;5041366;28;20532;-72
2022/05/11 08:20:07;;;;;;;7.20;4.10;;;48.40;20.30;;;;;;5036258;28;20032;-69
2022/05/11 08:22:34;;;;;;;9.13;3.95;;;48.10;20.60;;;;;;5034309;28;20356;-70
2022/05/11 08:25:00;;;;;;;7.40;4.25;;;48.30;20.60;;;;;;5081470;28;20481;-71
2022/05/11 08:27:28;;;;;;;10.80;4.70;;;48.80;20.50;;;;;;5063742;28;20063;-69
2022/05/11 08:35:27;;;;;;;11.68;4.50;;;51.00;20.00;;;;;;5076581;28;20131;-68
2022/05/11 08:37:53;;;;;;;10.70;4.82;;;51.90;20.00;;;;;;5058446;28;20090;-70
2022/05/11 08:40:37;;;;;;;7.57;4.30;;;52.70;19.80;;;;;;5065610;28;20100;-70
2022/05/11 08:43:06;;;;;;;9.75;3.88;;;53.20;19.30;;;;;;5078112;28;20076;-69
2022/05/11 08:45:58;;;;;;;9.65;4.22;;;53.10;19.30;;;;;;5058599;28;20047;-69
2022/05/11 08:48:45;;;;;;;8.07;3.72;;;53.40;19.30;;;;;;5080138;28;20303;-65
2022/05/11 08:51:20;;;;;;;6.22;3.60;;;52.90;19.40;;;;;;5071579;28;20031;-74
2022/05/11 08:54:37;;;;;;;10.52;3.58;;;52.90;19.20;;;;;;5045835;28;20024;-71
2022/05/11 08:57:10;;;;;;;7.88;3.83;;;51.90;19.40;;;;;;4995130;28;20033;-67
2022/05/11 08:59:38;;;;;;;6.57;3.97;;;51.70;19.40;;;;;;4995858;28;20604;-68
2022/05/11 09:02:10;;;;;;;15.50;4.90;;;50.80;19.50;;;;;;5016199;28;20521;-67
2022/05/11 09:04:52;;;;;;;8.53;3.73;;;49.70;19.70;;;;;;5007987;28;20499;-67
2022/05/11 09:07:19;;;;;;;5.53;3.40;;;48.70;19.70;;;;;;5013596;28;20124;-68
2022/05/11 09:09:45;;;;;;;5.82;2.70;;;46.60;20.00;;;;;;5027022;28;20025;-65
2022/05/11 09:12:11;;;;;;;8.15;3.30;;;43.70;20.60;;;;;;5009466;28;20026;-73
2022/05/11 09:14:39;;;;;;;8.43;3.53;;;41.10;21.70;;;;;;5019748;28;20127;-67
2022/05/11 09:17:20;;;;;;;6.07;3.47;;;39.30;22.40;;;;;;5024077;28;20025;-67
2022/05/11 09:19:55;;;;;;;6.93;3.17;;;38.00;23.00;;;;;;5016259;28;20033;-67
2022/05/11 09:22:26;;;;;;;6.32;3.10;;;36.50;23.60;;;;;;4996013;28;20522;-66
2022/05/11 09:24:58;;;;;;;6.57;2.97;;;35.30;24.00;;;;;;4997028;28;20037;-71
2022/05/11 09:27:34;;;;;;;5.45;2.95;;;34.40;25.00;;;;;;4996919;28;20029;-66
2022/05/11 09:30:03;;;;;;;5.28;2.90;;;33.70;25.50;;;;;;5011536;28;20030;-73
2022/05/11 09:32:29;;;;;;;8.15;2.72;;;33.40;25.90;;;;;;5039596;28;20043;-66
2022/05/11 09:35:14;;;;;;;4.03;2.78;;;32.80;26.10;;;;;;5072060;28;20037;-66
2022/05/11 09:37:44;;;;;;;7.55;3.63;;;32.30;26.40;;;;;;5040226;28;20155;-69
2022/05/11 09:40:21;;;;;;;12.02;4.00;;;32.00;27.30;;;;;;5067752;28;20031;-67
2022/05/11 09:42:59;;;;;;;5.35;3.10;;;31.60;27.70;;;;;;5080171;28;20190;-71
2022/05/11 09:45:49;;;;;;;7.07;2.90;;;31.20;28.10;;;;;;5084290;28;20528;-67
2022/05/11 09:48:22;;;;;;;8.40;3.33;;;30.70;28.70;;;;;;5092245;28;20028;-66
2022/05/11 09:50:54;;;;;;;8.70;4.00;;;30.30;28.70;;;;;;5091709;28;20138;-66
2022/05/11 09:53:33;;;;;;;6.90;3.67;;;30.10;29.00;;;;;;5091673;28;20019;-66
2022/05/11 09:56:35;;;;;;;7.25;3.75;;;30.00;29.20;;;;;;5073178;28;20593;-72
2022/05/11 09:59:27;;;;;;;5.20;3.00;;;29.80;29.50;;;;;;5068403;28;20043;-73
2022/05/11 10:02:24;;;;;;;7.65;3.63;;;29.70;29.60;;;;;;5062184;28;20047;-67
2022/05/11 10:04:58;;;;;;;19.58;3.50;;;29.50;29.90;;;;;;5072104;28;20107;-65
2022/05/11 10:07:27;;;;;;;6.22;3.85;;;29.50;29.80;;;;;;5092383;28;20036;-66
2022/05/11 10:10:12;;;;;;;6.82;3.58;;;29.40;29.60;;;;;;5092844;28;20056;-67
2022/05/11 10:12:50;;;;;;;14.38;7.18;;;29.50;30.00;;;;;;5059548;28;20038;-66
2022/05/11 10:24:21;;;;;;;6.90;3.38;;;29.90;29.80;;;;;;5082631;28;20031;-66
2022/05/11 10:27:32;;;;;;;6.03;3.20;;;29.70;29.90;;;;;;5061312;28;20030;-67
2022/05/11 10:30:02;;;;;;;10.65;3.30;;;29.60;29.90;;;;;;4999592;28;20025;-67
2022/05/11 10:32:39;;;;;;;10.35;3.35;;;29.60;30.00;;;;;;4993593;28;20072;-66
2022/05/11 10:35:17;;;;;;;6.55;3.30;;;29.50;30.20;;;;;;4997503;28;20045;-69
2022/05/11 10:38:05;;;;;;;10.43;3.75;;;29.50;30.40;;;;;;5006405;28;20117;-68
2022/05/11 10:40:31;;;;;;;6.70;3.45;;;29.40;30.50;;;;;;5005970;28;20036;-66
2022/05/11 10:43:30;;;;;;;6.40;3.05;;;29.40;30.60;;;;;;4992420;28;20128;-67
2022/05/11 10:46:08;;;;;;;9.63;3.50;;;29.40;30.50;;;;;;5007304;28;20061;-66
2022/05/11 10:49:02;;;;;;;7.50;3.45;;;29.40;30.30;;;;;;4997460;28;20035;-66
2022/05/11 10:51:56;;;;;;;5.32;3.33;;;29.60;30.10;;;;;;4985236;28;20030;-65
2022/05/11 10:54:40;;;;;;;11.32;4.07;;;29.60;29.90;;;;;;4983332;28;20025;-66
2022/05/11 10:57:14;;;;;;;8.60;3.97;;;29.50;30.00;;;;;;4991376;28;20033;-72
2022/05/11 10:59:49;;;;;;;6.18;3.38;;;29.60;29.80;;;;;;4997401;28;20030;-66
2022/05/11 11:02:48;;;;;;;6.57;3.15;;;29.60;29.20;;;;;;5077164;28;20027;-66
2022/05/11 11:05:32;;;;;;;7.93;3.75;;;29.40;29.30;;;;;;5071230;28;20020;-66
2022/05/11 11:08:23;;;;;;;4.63;2.53;;;29.20;29.00;;;;;;5087804;28;20017;-67
2022/05/11 11:11:07;;;;;;;5.95;3.67;;;29.30;28.20;;;;;;5071067;28;20028;-66
2022/05/11 11:13:39;;;;;;;8.82;3.40;;;29.40;29.40;;;;;;5073048;28;20027;-64
2022/05/11 11:16:08;;;;;;;8.30;3.13;;;29.50;29.90;;;;;;5071858;28;20023;-72
2022/05/11 11:18:43;;;;;;;7.85;3.03;;;29.50;30.00;;;;;;5083041;28;20069;-68
2022/05/11 11:21:11;;;;;;;7.45;3.10;;;29.60;29.80;;;;;;5084287;28;20052;-67
2022/05/11 11:23:40;;;;;;;5.82;3.40;;;29.80;29.10;;;;;;5089075;28;20358;-66
2022/05/11 11:26:07;;;;;;;5.40;2.95;;;29.90;29.20;;;;;;5089491;28;20420;-72
2022/05/11 11:28:56;;;;;;;10.27;3.30;;;29.80;29.10;;;;;;5086537;28;20069;-65
2022/05/11 11:31:26;;;;;;;5.55;2.97;;;29.90;29.00;;;;;;5063811;28;20020;-65
2022/05/11 11:34:04;;;;;;;6.53;3.13;;;29.80;28.70;;;;;;5061841;28;20025;-65
2022/05/11 11:36:34;;;;;;;17.10;4.53;;;29.80;29.10;;;;;;5072740;28;20046;-67
2022/05/11 11:39:02;;;;;;;5.35;2.97;;;29.90;29.10;;;;;;5081708;28;20020;-67
2022/05/11 11:41:30;;;;;;;21.42;3.58;;;30.00;28.90;;;;;;5088903;28;20576;-64
2022/05/11 11:44:05;;;;;;;9.82;3.85;;;30.10;28.90;;;;;;5081405;28;20027;-65
2022/05/11 11:46:33;;;;;;;6.60;3.60;;;30.20;28.90;;;;;;5059955;28;20016;-65
2022/05/11 11:49:09;;;;;;;13.85;4.45;;;30.10;28.80;;;;;;5080470;28;20024;-64
2022/05/11 11:52:00;;;;;;;4.95;3.03;;;30.20;28.60;;;;;;5064468;28;20041;-62
2022/05/11 11:54:37;;;;;;;5.07;3.50;;;30.10;28.40;;;;;;5066143;28;20132;-64
2022/05/11 11:57:04;;;;;;;8.85;3.80;;;30.00;28.70;;;;;;5091192;28;20024;-65
2022/05/11 11:59:32;;;;;;;6.78;2.90;;;30.10;28.80;;;;;;5084801;28;20080;-64
2022/05/11 12:02:10;;;;;;;7.20;3.13;;;30.20;28.60;;;;;;5071580;28;20031;-66
2022/05/11 12:04:44;;;;;;;6.55;3.45;;;30.40;28.90;;;;;;5061983;28;20031;-63
2022/05/11 12:16:05;;;;;;;6.78;3.05;;;30.60;28.70;;;;;;5087681;28;20039;-65
2022/05/11 12:18:36;;;;;;;6.70;3.38;;;30.60;28.50;;;;;;5069701;28;20461;-64
2022/05/11 12:21:22;;;;;;;6.88;3.00;;;30.50;28.40;;;;;;5071654;28;20178;-63
2022/05/11 12:23:50;;;;;;;5.80;2.78;;;30.40;28.10;;;;;;5089327;28;20503;-62
2022/05/11 12:26:33;;;;;;;5.65;3.67;;;30.40;28.10;;;;;;5070689;28;20012;-65
2022/05/11 12:32:07;;;;;;;8.38;3.30;;;30.60;28.40;;;;;;5087583;28;20032;-68
2022/05/11 12:34:38;;;;;;;;;;;30.60;28.60;;;;;;5089891;28;20028;-66
2022/05/11 12:37:26;;;;;;;6.70;3.58;;;30.60;28.60;;;;;;5089673;28;20269;-62
2022/05/11 12:40:13;;;;;;;9.57;3.53;;;30.60;28.50;;;;;;5062516;28;20031;-70
2022/05/11 12:42:42;;;;;;;5.97;3.72;;;30.60;28.40;;;;;;5081226;28;20036;-67
2022/05/11 12:45:12;;;;;;;7.00;3.20;;;30.80;28.40;;;;;;5060035;28;20086;-66
2022/05/11 12:47:53;;;;;;;6.30;3.50;;;30.90;28.00;;;;;;5064821;28;20021;-68
2022/05/11 12:50:34;;;;;;;5.80;3.15;;;30.90;28.10;;;;;;5051185;28;20017;-64
2022/05/11 12:53:17;;;;;;;9.55;3.53;;;31.10;28.50;;;;;;5065748;28;20032;-65
2022/05/11 12:55:45;;;;;;;7.50;3.38;;;31.20;28.00;;;;;;5087647;28;20078;-67
2022/05/11 12:58:23;;;;;;;7.03;3.88;;;31.20;28.10;;;;;;5070728;28;20039;-71
2022/05/11 13:00:58;;;;;;;4.40;3.30;;;31.10;28.30;;;;;;5064873;28;20021;-64
2022/05/11 13:03:37;;;;;;;17.42;4.60;;;31.00;28.30;;;;;;5064019;28;20032;-65
2022/05/11 13:06:41;;;;;;;8.43;3.42;;;31.00;28.40;;;;;;5070380;28;20028;-63
2022/05/11 13:09:20;;;;;;;6.60;3.13;;;30.80;28.30;;;;;;4987524;28;20105;-65
2022/05/11 13:11:48;;;;;;;6.03;3.30;;;30.80;28.50;;;;;;4976441;28;20852;-68
2022/05/11 13:14:19;;;;;;;5.43;3.58;;;30.90;28.60;;;;;;4987138;28;20081;-72
2022/05/11 13:16:51;;;;;;;8.15;3.45;;;30.90;28.50;;;;;;4974586;28;20109;-67
2022/05/11 13:19:32;;;;;;;6.60;3.58;;;30.90;28.60;;;;;;4988492;28;20035;-68
2022/05/11 13:22:01;;;;;;;10.77;4.13;;;30.90;28.80;;;;;;4991074;28;20050;-72
2022/05/11 13:24:49;;;;;;;7.20;3.28;;;30.90;28.70;;;;;;4989899;28;20035;-72
2022/05/11 13:27:43;;;;;;;8.00;3.15;;;30.90;28.70;;;;;;4990871;28;20073;-72
2022/05/11 13:30:22;;;;;;;4.40;3.00;;;30.90;28.50;;;;;;4990931;28;20030;-74
2022/05/11 13:32:50;;;;;;;4.78;3.17;;;30.70;28.70;;;;;;4977880;28;20030;-72
2022/05/11 13:35:30;;;;;;;5.38;3.25;;;30.80;28.50;;;;;;4990201;28;20080;-72
2022/05/11 13:38:09;;;;;;;7.50;3.80;;;30.80;28.60;;;;;;4988201;28;20515;-72
2022/05/11 13:40:54;;;;;;;5.50;2.92;;;30.70;28.70;;;;;;4989894;28;20038;-73
2022/05/11 13:43:31;;;;;;;5.78;2.95;;;30.80;28.70;;;;;;4989948;28;20495;-75
2022/05/11 13:46:00;;;;;;;6.65;3.05;;;31.00;28.80;;;;;;5042257;28;20153;-74
2022/05/11 13:48:35;;;;;;;7.35;3.30;;;31.00;28.70;;;;;;5091793;28;20059;-75
2022/05/11 13:51:21;;;;;;;7.28;3.17;;;30.80;28.60;;;;;;5092624;28;20032;-74
2022/05/11 13:53:50;;;;;;;5.93;3.47;;;30.60;28.70;;;;;;5062865;28;20502;-69